Time;durP1;ratioP1;P1;durP2;ratioP2;P2;SDS_P1;SDS_P2;PMS_P1;PMS_P2;Temp;Humidity;BMP_temperature;BMP_pressure;BME280_temperature;BME280_humidity;BME280_pressure;Samples;Min_cycle;Max_cycle;Signal;HPM_P1;HPM_P2
2023/06/03 00:02:09;;;;;;;;;;;;;;;22.11;62.16;100351.38;7399153;19;1734;-48
2023/06/03 00:04:41;;;;;;;;;;;;;;;22.15;62.39;100370.75;7399992;19;1821;-49
2023/06/03 00:07:09;;;;;;;;;;;;;;;22.12;62.03;100374.59;7399824;19;1573;-49
2023/06/03 00:09:40;;;;;;;;;;;;;;;22.16;61.96;100359.81;7398004;19;1883;-49
2023/06/03 00:12:10;;;;;;;;;;;;;;;22.06;62.32;100359.09;7399616;19;1478;-48
2023/06/03 00:14:38;;;;;;;;;;;;;;;22.15;61.82;100359.97;7401579;19;973;-54
2023/06/03 00:17:07;;;;;;;;;;;;;;;22.06;62.51;100356.41;7400303;19;1126;-49
2023/06/03 00:19:35;;;;;;;;;;;;;;;22.07;62.32;100366.19;7399152;19;1908;-49
2023/06/03 00:22:04;;;;;;;;;;;;;;;22.07;62.12;100373.44;7399354;19;1584;-49
2023/06/03 00:24:32;;;;;;;;;;;;;;;22.09;62.41;100368.72;7396858;19;1576;-49
2023/06/03 00:27:03;;;;;;;;;;;;;;;22.07;62.33;100379.66;7399416;19;1722;-49
2023/06/03 00:29:31;;;;;;;;;;;;;;;22.06;62.58;100375.25;7395939;19;1556;-49
2023/06/03 00:31:59;;;;;;;;;;;;;;;22.03;62.38;100359.44;7399062;19;1051;-48
2023/06/03 00:34:28;;;;;;;;;;;;;;;22.00;62.43;100368.72;7398548;19;1880;-48
2023/06/03 00:36:56;;;;;;;;;;;;;;;22.05;62.31;100352.06;7399167;19;1035;-48
2023/06/03 00:39:24;;;;;;;;;;;;;;;22.01;62.30;100361.47;7398549;19;2055;-48
2023/06/03 00:41:52;;;;;;;;;;;;;;;22.01;62.47;100367.69;7398780;19;1825;-49
2023/06/03 00:44:23;;;;;;;;;;;;;;;22.08;62.30;100364.34;7399281;19;1408;-49
2023/06/03 00:46:52;;;;;;;;;;;;;;;21.99;62.04;100353.56;7399082;19;1804;-49
2023/06/03 00:49:20;;;;;;;;;;;;;;;22.07;61.99;100352.72;7397311;19;1727;-49
2023/06/03 00:51:49;;;;;;;;;;;;;;;22.05;62.28;100357.44;7395940;19;1853;-49
2023/06/03 00:54:18;;;;;;;;;;;;;;;21.98;62.52;100345.63;7396908;19;1457;-49
2023/06/03 00:56:47;;;;;;;;;;;;;;;21.98;61.95;100351.84;7397597;19;1421;-49
2023/06/03 00:59:17;;;;;;;;;;;;;;;21.97;62.35;100347.50;7398766;19;1415;-49
2023/06/03 01:01:48;;;;;;;;;;;;;;;22.03;62.39;100354.06;7397577;19;1923;-48
2023/06/03 01:04:25;;;;;;;;;;;;;;;22.00;62.05;100349.00;7397324;19;1957;-48
2023/06/03 01:07:00;;;;;;;;;;;;;;;21.95;62.43;100345.97;7394555;19;1923;-48
2023/06/03 01:09:32;;;;;;;;;;;;;;;22.01;61.97;100346.16;7397348;19;1504;-48
2023/06/03 01:12:05;;;;;;;;;;;;;;;21.94;61.99;100338.91;7396589;19;1883;-49
2023/06/03 01:14:37;;;;;;;;;;;;;;;21.99;62.10;100347.31;7398534;19;1034;-49
2023/06/03 01:17:10;;;;;;;;;;;;;;;21.50;62.30;100299.59;7398721;19;1314;-49
2023/06/03 01:19:47;;;;;;;;;;;;;;;21.97;61.97;100344.78;7396732;19;1943;-49
2023/06/03 01:22:16;;;;;;;;;;;;;;;22.00;62.13;100347.16;7397900;19;1812;-49
2023/06/03 01:24:48;;;;;;;;;;;;;;;21.99;62.22;100344.63;7395530;19;1826;-49
2023/06/03 01:27:16;;;;;;;;;;;;;;;21.99;62.29;100347.31;7396993;19;1845;-49
2023/06/03 01:29:45;;;;;;;;;;;;;;;21.91;62.17;100341.94;7396899;19;1331;-49
2023/06/03 01:32:15;;;;;;;;;;;;;;;22.01;61.95;100343.47;7395132;19;1887;-49
2023/06/03 01:34:44;;;;;;;;;;;;;;;21.98;62.09;100356.41;7396329;19;1858;-49
2023/06/03 01:37:13;;;;;;;;;;;;;;;21.96;62.19;100361.09;7396540;19;1789;-49
2023/06/03 01:39:42;;;;;;;;;;;;;;;22.00;62.03;100359.75;7397038;19;1469;-48
2023/06/03 01:42:14;;;;;;;;;;;;;;;21.97;61.78;100360.13;7396724;19;1802;-49
2023/06/03 01:44:42;;;;;;;;;;;;;;;21.97;61.95;100365.50;7397526;19;1667;-49
2023/06/03 01:47:11;;;;;;;;;;;;;;;21.97;61.83;100377.09;7396480;19;1615;-48
2023/06/03 01:49:40;;;;;;;;;;;;;;;21.93;62.13;100381.13;7396934;19;1733;-49
2023/06/03 01:52:08;;;;;;;;;;;;;;;21.98;62.08;100367.16;7395880;19;1852;-49
2023/06/03 01:54:37;;;;;;;;;;;;;;;21.93;61.92;100375.75;7395152;19;1828;-48
2023/06/03 01:57:06;;;;;;;;;;;;;;;21.97;62.14;100389.72;7395605;19;1715;-48
2023/06/03 01:59:37;;;;;;;;;;;;;;;21.97;62.14;100395.13;7394728;19;1750;-49
2023/06/03 02:02:05;;;;;;;;;;;;;;;21.87;62.24;100392.56;7395542;19;1721;-49
2023/06/03 02:04:34;;;;;;;;;;;;;;;21.77;62.35;100392.69;7395733;19;1710;-49
2023/06/03 02:07:02;;;;;;;;;;;;;;;21.78;62.40;100399.75;7396642;19;1043;-48
2023/06/03 02:09:31;;;;;;;;;;;;;;;21.65;62.75;100392.13;7396041;19;1916;-48
2023/06/03 02:12:00;;;;;;;;;;;;;;;21.74;62.65;100398.38;7394756;19;1849;-49
2023/06/03 02:14:30;;;;;;;;;;;;;;;21.78;62.68;100410.50;7395390;19;1888;-48
2023/06/03 02:17:02;;;;;;;;;;;;;;;21.80;62.48;100407.66;7396577;19;1762;-49
2023/06/03 02:19:30;;;;;;;;;;;;;;;21.79;62.66;100401.44;7395624;19;1362;-49
2023/06/03 02:21:59;;;;;;;;;;;;;;;21.77;62.38;100391.84;7395201;19;1601;-48
2023/06/03 02:24:28;;;;;;;;;;;;;;;21.74;62.67;100393.00;7393248;19;1422;-48
2023/06/03 02:27:00;;;;;;;;;;;;;;;21.78;62.29;100399.75;7395164;19;1701;-48
2023/06/03 02:29:29;;;;;;;;;;;;;;;21.68;62.62;100408.97;7393547;19;1458;-48
2023/06/03 02:31:58;;;;;;;;;;;;;;;21.77;62.84;100414.22;7392005;19;1851;-49
2023/06/03 02:34:29;;;;;;;;;;;;;;;21.69;62.81;100406.13;7395744;19;1492;-49
2023/06/03 02:36:57;;;;;;;;;;;;;;;21.73;62.51;100403.97;7396320;19;1106;-49
2023/06/03 02:39:26;;;;;;;;;;;;;;;21.77;62.77;100414.22;7394776;19;1948;-50
2023/06/03 02:41:54;;;;;;;;;;;;;;;21.78;62.56;100415.06;7393996;19;1524;-49
2023/06/03 02:44:22;;;;;;;;;;;;;;;21.71;62.47;100431.03;7395733;19;1757;-50
2023/06/03 02:46:50;;;;;;;;;;;;;;;21.80;62.44;100411.19;7394969;19;1465;-48
2023/06/03 02:49:19;;;;;;;;;;;;;;;21.78;62.19;100410.50;7393615;19;1667;-49
2023/06/03 02:51:50;;;;;;;;;;;;;;;21.80;62.52;100413.88;7392072;19;1845;-49
2023/06/03 02:54:18;;;;;;;;;;;;;;;21.86;62.34;100428.53;7401312;19;1643;-49
2023/06/03 02:56:46;;;;;;;;;;;;;;;21.78;62.28;100423.97;7402483;19;1805;-49
2023/06/03 02:59:14;;;;;;;;;;;;;;;21.74;62.31;100424.47;7399253;19;1453;-49
2023/06/03 03:01:43;;;;;;;;;;;;;;;21.81;62.51;100409.38;7402962;19;1613;-48
2023/06/03 03:04:12;;;;;;;;;;;;;;;21.81;62.54;100420.97;7402490;19;1414;-48
2023/06/03 03:06:41;;;;;;;;;;;;;;;21.76;62.49;100412.53;7403204;19;944;-48
2023/06/03 03:09:12;;;;;;;;;;;;;;;21.78;62.52;100426.66;7402551;19;1960;-49
2023/06/03 03:11:40;;;;;;;;;;;;;;;21.84;62.04;100406.34;7400433;19;1859;-49
2023/06/03 03:14:08;;;;;;;;;;;;;;;21.80;62.10;100419.25;7402453;19;1939;-49
2023/06/03 03:16:37;;;;;;;;;;;;;;;21.87;62.33;100426.72;7402396;19;1706;-49
2023/06/03 03:19:05;;;;;;;;;;;;;;;21.82;62.25;100417.25;7401086;19;1903;-49
2023/06/03 03:21:34;;;;;;;;;;;;;;;21.85;62.02;100427.72;7400760;19;1563;-49
2023/06/03 03:24:02;;;;;;;;;;;;;;;21.81;62.13;100420.97;7399648;19;1510;-49
2023/06/03 03:26:33;;;;;;;;;;;;;;;21.69;62.40;100408.81;7400006;19;1737;-48
2023/06/03 03:29:02;;;;;;;;;;;;;;;21.68;62.65;100417.03;7399528;19;1831;-49
2023/06/03 03:31:31;;;;;;;;;;;;;;;21.76;62.51;100417.91;7400202;19;1868;-48
2023/06/03 03:33:59;;;;;;;;;;;;;;;21.78;62.09;100432.03;7400351;19;1805;-48
2023/06/03 03:36:28;;;;;;;;;;;;;;;21.70;62.34;100426.63;7401537;19;1054;-48
2023/06/03 03:39:03;;;;;;;;;;;;;;;21.67;62.37;100424.28;7400372;19;1505;-49
2023/06/03 03:41:34;;;;;;;;;;;;;;;21.84;62.31;100426.03;7400363;19;1535;-48
2023/06/03 03:44:02;;;;;;;;;;;;;;;22.00;62.00;100441.41;7399644;19;1426;-49
2023/06/03 03:46:31;;;;;;;;;;;;;;;21.98;61.49;100432.63;7399809;19;1441;-48
2023/06/03 03:49:00;;;;;;;;;;;;;;;21.99;61.84;100437.00;7399445;19;1759;-48
2023/06/03 03:51:28;;;;;;;;;;;;;;;22.06;61.41;100450.66;7399391;19;1859;-48
2023/06/03 03:53:56;;;;;;;;;;;;;;;21.96;61.49;100444.56;7399865;19;1584;-49
2023/06/03 03:56:25;;;;;;;;;;;;;;;21.94;61.91;100451.97;7400162;19;1757;-49
2023/06/03 03:58:56;;;;;;;;;;;;;;;21.93;61.78;100444.91;7399554;19;1530;-49
2023/06/03 04:01:25;;;;;;;;;;;;;;;21.83;62.20;100451.25;7401505;19;969;-48
2023/06/03 04:03:55;;;;;;;;;;;;;;;21.83;62.21;100456.63;7399371;19;1858;-48
2023/06/03 04:06:32;;;;;;;;;;;;;;;21.85;61.94;100461.88;7399316;19;1559;-49
2023/06/03 04:09:01;;;;;;;;;;;;;;;21.87;61.79;100467.09;7400052;19;1727;-48
2023/06/03 04:11:30;;;;;;;;;;;;;;;21.86;62.05;100471.63;7398509;19;1842;-49
2023/06/03 04:14:03;;;;;;;;;;;;;;;21.87;61.97;100480.56;7399161;19;1379;-49
2023/06/03 04:16:52;;;;;;;;;;;;;;;21.85;61.96;100486.94;7399825;19;1741;-49
2023/06/03 04:19:27;;;;;;;;;;;;;;;21.79;62.03;100514.50;7398268;19;1687;-48
2023/06/03 04:21:56;;;;;;;;;;;;;;;21.84;62.33;100520.25;7398899;19;1788;-48
2023/06/03 04:24:24;;;;;;;;;;;;;;;21.90;61.97;100505.28;7398096;19;1336;-49
2023/06/03 04:26:53;;;;;;;;;;;;;;;22.02;61.98;100522.88;7398121;19;1780;-49
2023/06/03 04:29:24;;;;;;;;;;;;;;;21.98;62.45;100512.56;7397197;19;1691;-49
2023/06/03 04:31:52;;;;;;;;;;;;;;;21.98;62.50;100531.41;7398309;19;1842;-49
2023/06/03 04:34:21;;;;;;;;;;;;;;;21.96;62.48;100541.50;6869969;19;9999660;-48
2023/06/03 04:36:49;;;;;;;;;;;;;;;22.02;62.58;100538.16;7391958;19;1584;-49
2023/06/03 04:39:17;;;;;;;;;;;;;;;22.07;62.23;100538.53;7391991;19;1920;-49
2023/06/03 04:41:46;;;;;;;;;;;;;;;21.94;62.76;100546.19;7391213;19;1890;-49
2023/06/03 04:44:14;;;;;;;;;;;;;;;22.03;62.63;100545.25;7390784;19;1361;-48
2023/06/03 04:46:45;;;;;;;;;;;;;;;22.06;62.45;100552.97;7391471;19;1726;-49
2023/06/03 04:49:14;;;;;;;;;;;;;;;22.08;62.27;100556.34;7390631;19;1670;-48
2023/06/03 04:51:42;;;;;;;;;;;;;;;22.08;62.16;100542.88;7390836;19;1860;-49
2023/06/03 04:54:10;;;;;;;;;;;;;;;22.11;62.41;100564.13;7391480;19;1373;-48
2023/06/03 04:56:39;;;;;;;;;;;;;;;22.10;62.07;100538.19;7390769;19;1509;-49
2023/06/03 04:59:07;;;;;;;;;;;;;;;21.96;62.73;100560.34;7390332;19;1536;-49
2023/06/03 05:01:36;;;;;;;;;;;;;;;21.83;63.71;100545.47;7390064;19;1384;-50
2023/06/03 05:04:08;;;;;;;;;;;;;;;21.66;63.88;100554.44;7392557;19;1457;-48
2023/06/03 05:06:37;;;;;;;;;;;;;;;21.85;63.63;100556.09;7396873;19;976;-48
2023/06/03 05:09:05;;;;;;;;;;;;;;;21.84;63.39;100544.47;7395695;19;1946;-49
2023/06/03 05:11:33;;;;;;;;;;;;;;;22.00;62.84;100538.34;7395353;19;1923;-49
2023/06/03 05:14:02;;;;;;;;;;;;;;;21.93;63.33;100553.44;7396664;19;1575;-49
2023/06/03 05:16:30;;;;;;;;;;;;;;;21.84;63.54;100540.91;7396238;19;1804;-49
2023/06/03 05:18:58;;;;;;;;;;;;;;;21.78;63.63;100555.84;7395193;19;1379;-49
2023/06/03 05:21:29;;;;;;;;;;;;;;;21.73;63.77;100549.28;7391899;19;1517;-49
2023/06/03 05:23:57;;;;;;;;;;;;;;;21.71;63.65;100557.50;7388641;19;1770;-48
2023/06/03 05:26:26;;;;;;;;;;;;;;;21.84;62.83;100560.63;7390978;19;1632;-49
2023/06/03 05:28:55;;;;;;;;;;;;;;;21.93;62.94;100560.69;7392251;19;1582;-48
2023/06/03 05:31:23;;;;;;;;;;;;;;;21.84;63.23;100574.09;7392389;19;1857;-49
2023/06/03 05:33:51;;;;;;;;;;;;;;;21.79;62.93;100573.72;7391622;19;1453;-48
2023/06/03 05:36:19;;;;;;;;;;;;;;;21.73;63.31;100568.97;7398081;19;1171;-49
2023/06/03 05:38:50;;;;;;;;;;;;;;;21.74;63.13;100581.41;7394771;19;1604;-49
2023/06/03 05:41:19;;;;;;;;;;;;;;;21.70;63.25;100568.44;7394938;19;1379;-48
2023/06/03 05:43:47;;;;;;;;;;;;;;;21.91;63.02;100581.53;7394968;19;1717;-48
2023/06/03 05:46:15;;;;;;;;;;;;;;;22.02;62.62;100592.88;7394730;19;1509;-48
2023/06/03 05:48:44;;;;;;;;;;;;;;;21.80;63.51;100598.78;7396611;19;1492;-49
2023/06/03 05:51:12;;;;;;;;;;;;;;;21.68;64.22;100592.81;7391918;19;1250;-49
2023/06/03 05:53:43;;;;;;;;;;;;;;;21.86;63.75;100581.97;7392015;19;1863;-48
2023/06/03 05:56:14;;;;;;;;;;;;;;;21.88;63.57;100587.22;7391783;19;1569;-49
2023/06/03 05:58:43;;;;;;;;;;;;;;;21.78;63.96;100587.31;7394572;19;1500;-49
2023/06/03 06:01:11;;;;;;;;;;;;;;;22.11;63.54;100601.00;7393032;19;1334;-49
2023/06/03 06:03:41;;;;;;;;;;;;;;;22.10;63.31;100592.03;7393981;19;1496;-48
2023/06/03 06:06:09;;;;;;;;;;;;;;;22.29;62.58;100591.00;7392352;19;1718;-51
2023/06/03 06:08:38;;;;;;;;;;;;;;;22.30;62.90;100591.84;7395105;19;1220;-51
2023/06/03 06:11:06;;;;;;;;;;;;;;;22.10;63.15;100592.03;7394625;19;1540;-52
2023/06/03 06:13:37;;;;;;;;;;;;;;;22.42;62.25;100590.53;7389668;19;1849;-51
2023/06/03 06:16:06;;;;;;;;;;;;;;;22.44;62.15;100599.31;7389670;19;1267;-51
2023/06/03 06:18:34;;;;;;;;;;;;;;;22.39;62.34;100598.97;7389724;19;1432;-51
2023/06/03 06:21:03;;;;;;;;;;;;;;;22.25;62.92;100595.03;7388440;19;1505;-51
2023/06/03 06:23:31;;;;;;;;;;;;;;;22.32;62.94;100601.47;7387428;19;1618;-51
2023/06/03 06:25:59;;;;;;;;;;;;;;;22.31;63.18;100615.09;7391522;19;1421;-53
2023/06/03 06:28:29;;;;;;;;;;;;;;;22.14;64.07;100609.56;7398845;19;1484;-52
2023/06/03 06:31:04;;;;;;;;;;;;;;;22.21;63.68;100602.56;7401160;19;1422;-51
2023/06/03 06:33:33;;;;;;;;;;;;;;;22.18;63.87;100599.31;7397865;19;1891;-52
2023/06/03 06:36:03;;;;;;;;;;;;;;;22.39;63.04;100604.34;7398378;19;1508;-51
2023/06/03 06:38:31;;;;;;;;;;;;;;;22.26;63.79;100610.16;7400369;19;1608;-50
2023/06/03 06:41:00;;;;;;;;;;;;;;;22.35;63.48;100600.31;7399927;19;1471;-51
2023/06/03 06:43:28;;;;;;;;;;;;;;;22.30;63.65;100608.00;7399445;19;1544;-54
2023/06/03 06:46:00;;;;;;;;;;;;;;;22.39;63.52;100612.44;7401511;19;1464;-52
2023/06/03 06:48:28;;;;;;;;;;;;;;;22.34;63.66;100614.75;7400832;19;1583;-52
2023/06/03 06:50:58;;;;;;;;;;;;;;;22.33;63.85;100607.69;7400695;19;1222;-52
2023/06/03 06:53:27;;;;;;;;;;;;;;;22.49;63.61;100618.53;7398626;19;1849;-52
2023/06/03 06:55:56;;;;;;;;;;;;;;;22.48;63.37;100614.13;7402810;19;1012;-52
2023/06/03 06:58:25;;;;;;;;;;;;;;;22.39;63.41;100618.66;7401379;19;1853;-52
2023/06/03 07:00:53;;;;;;;;;;;;;;;22.48;63.62;100622.22;7398210;19;1361;-52
2023/06/03 07:03:24;;;;;;;;;;;;;;;22.48;63.06;100610.59;7400118;19;1489;-52
2023/06/03 07:05:54;;;;;;;;;;;;;;;22.47;63.97;100631.34;7400263;19;1784;-52
2023/06/03 07:08:23;;;;;;;;;;;;;;;22.49;63.54;100633.88;7399459;19;1946;-50
2023/06/03 07:10:52;;;;;;;;;;;;;;;22.47;63.86;100628.63;7399222;19;1544;-51
2023/06/03 07:13:20;;;;;;;;;;;;;;;22.48;64.21;100643.78;7398140;19;1846;-50
2023/06/03 07:15:48;;;;;;;;;;;;;;;22.48;63.82;100638.41;7400296;19;1220;-48
2023/06/03 07:18:17;;;;;;;;;;;;;;;22.36;63.96;100651.34;7397339;19;1383;-48
2023/06/03 07:20:48;;;;;;;;;;;;;;;22.38;64.00;100653.84;7397457;19;1373;-48
2023/06/03 07:23:21;;;;;;;;;;;;;;;22.39;64.15;100667.16;7398224;19;1418;-48
2023/06/03 07:25:50;;;;;;;;;;;;;;;22.23;64.74;100667.03;7401181;19;945;-48
2023/06/03 07:28:20;;;;;;;;;;;;;;;22.16;64.56;100664.16;7400466;19;1809;-48
2023/06/03 07:30:52;;;;;;;;;;;;;;;22.02;64.17;100670.97;7399516;19;1458;-48
2023/06/03 07:33:39;;;;;;;;;;;;;;;22.18;64.21;100678.31;7396840;19;1869;-48
2023/06/03 07:36:10;;;;;;;;;;;;;;;22.25;63.89;100681.22;7397058;19;1868;-48
2023/06/03 07:38:59;;;;;;;;;;;;;;;22.08;63.94;100671.31;7394189;19;2012;-49
2023/06/03 07:41:45;;;;;;;;;;;;;;;22.01;64.25;100668.41;7399442;19;1702;-48
2023/06/03 07:44:15;;;;;;;;;;;;;;;22.02;64.29;100713.19;7397144;19;1600;-49
2023/06/03 07:46:44;;;;;;;;;;;;;;;21.94;64.17;100683.50;7397884;19;1367;-48
2023/06/03 07:49:12;;;;;;;;;;;;;;;21.93;64.09;100681.81;7398530;19;1750;-48
2023/06/03 07:51:45;;;;;;;;;;;;;;;21.94;63.95;100683.50;7397658;19;1607;-47
2023/06/03 07:54:14;;;;;;;;;;;;;;;21.96;64.24;100687.72;7395061;19;2001;-49
2023/06/03 07:56:42;;;;;;;;;;;;;;;21.94;63.85;100678.94;7398165;19;1430;-48
2023/06/03 07:59:12;;;;;;;;;;;;;;;21.90;63.63;100674.88;7396813;19;1458;-48
2023/06/03 08:01:40;;;;;;;;;;;;;;;21.85;63.31;100691.53;7398931;19;1489;-49
2023/06/03 08:04:19;;;;;;;;;;;;;;;21.83;63.69;100680.06;7397743;19;1544;-49
2023/06/03 08:06:52;;;;;;;;;;;;;;;21.92;63.56;100686.34;7397983;19;1494;-48
2023/06/03 08:09:24;;;;;;;;;;;;;;;21.96;63.65;100687.72;7398796;19;1616;-48
2023/06/03 08:11:52;;;;;;;;;;;;;;;21.92;63.82;100685.50;7398432;19;1825;-48
2023/06/03 08:14:22;;;;;;;;;;;;;;;21.89;63.56;100683.97;7396728;19;1991;-48
2023/06/03 08:16:50;;;;;;;;;;;;;;;21.90;63.67;100676.75;7398598;19;1499;-48
2023/06/03 08:19:19;;;;;;;;;;;;;;;21.94;63.88;100672.72;7398560;19;1395;-48
2023/06/03 08:21:48;;;;;;;;;;;;;;;21.92;63.66;100689.03;7396108;19;1499;-54
2023/06/03 08:24:18;;;;;;;;;;;;;;;21.91;63.67;100678.44;7392208;19;1829;-48
2023/06/03 08:26:47;;;;;;;;;;;;;;;21.92;64.11;100683.66;7392295;19;1610;-48
2023/06/03 08:29:15;;;;;;;;;;;;;;;21.94;63.79;100688.88;7394006;19;1204;-48
2023/06/03 08:31:44;;;;;;;;;;;;;;;21.94;64.03;100694.28;7394452;19;1038;-48
2023/06/03 08:34:12;;;;;;;;;;;;;;;21.96;64.01;100697.66;7391931;19;1964;-48
2023/06/03 08:36:40;;;;;;;;;;;;;;;21.96;63.81;100695.78;7395644;19;1013;-48
2023/06/03 08:39:09;;;;;;;;;;;;;;;22.10;63.37;100688.16;7397855;19;1951;-48
2023/06/03 08:41:43;;;;;;;;;;;;;;;22.29;63.05;100689.84;7397271;19;1795;-49
2023/06/03 08:44:15;;;;;;;;;;;;;;;22.14;63.48;100700.31;7395884;19;1392;-49
2023/06/03 08:46:45;;;;;;;;;;;;;;;22.01;63.61;100688.09;7395439;19;1660;-48
2023/06/03 08:49:20;;;;;;;;;;;;;;;22.08;63.89;100701.78;7393003;19;1390;-48
2023/06/03 08:51:52;;;;;;;;;;;;;;;21.88;63.84;100700.28;7390031;19;1634;-48
2023/06/03 08:54:23;;;;;;;;;;;;;;;21.80;64.29;100704.59;7390628;19;1906;-48
2023/06/03 08:56:56;;;;;;;;;;;;;;;21.87;64.20;100698.59;7396253;19;1508;-48
2023/06/03 08:59:28;;;;;;;;;;;;;;;21.99;64.82;100710.81;7393867;19;1575;-49
2023/06/03 09:01:58;;;;;;;;;;;;;;;22.04;64.71;100705.78;7393172;19;1568;-49
2023/06/03 09:04:27;;;;;;;;;;;;;;;22.18;64.35;100707.06;7394575;19;1616;-49
2023/06/03 09:06:57;;;;;;;;;;;;;;;21.90;65.86;100709.88;7396987;19;1504;-46
2023/06/03 09:09:27;;;;;;;;;;;;;;;21.88;65.65;100708.34;6870157;19;10000134;-48
2023/06/03 09:11:58;;;;;;;;;;;;;;;21.92;65.68;100699.81;7391863;19;1538;-47
2023/06/03 09:14:27;;;;;;;;;;;;;;;21.88;65.67;100716.44;7387001;19;1845;-47
2023/06/03 09:16:55;;;;;;;;;;;;;;;22.13;65.44;100718.31;7390117;19;1608;-48
2023/06/03 09:19:24;;;;;;;;;;;;;;;22.02;66.04;100707.78;7394327;19;1663;-48
2023/06/03 09:21:53;;;;;;;;;;;;;;;22.12;65.56;100703.16;7395638;19;1465;-47
2023/06/03 09:24:21;;;;;;;;;;;;;;;22.13;65.32;100702.16;7392452;19;1414;-47
2023/06/03 09:26:50;;;;;;;;;;;;;;;22.09;66.10;100711.56;7392629;19;1383;-48
2023/06/03 09:29:21;;;;;;;;;;;;;;;22.04;66.36;100711.16;7394713;19;1428;-48
2023/06/03 09:31:50;;;;;;;;;;;;;;;22.11;67.04;100711.41;7393736;19;1437;-47
2023/06/03 09:34:19;;;;;;;;;;;;;;;22.23;65.75;100713.66;7392996;19;1845;-48
2023/06/03 09:36:47;;;;;;;;;;;;;;;22.33;65.41;100710.06;7392701;19;1367;-48
2023/06/03 09:39:18;;;;;;;;;;;;;;;22.48;65.14;100713.84;7394173;19;1210;-48
2023/06/03 09:41:47;;;;;;;;;;;;;;;22.29;66.63;100711.41;7394792;19;1395;-48
2023/06/03 09:44:15;;;;;;;;;;;;;;;22.28;66.42;100705.13;7394053;19;1801;-46
2023/06/03 09:46:51;;;;;;;;;;;;;;;22.15;66.46;100718.16;7393289;19;1520;-45
2023/06/03 09:49:20;;;;;;;;;;;;;;;22.12;67.18;100715.78;7392490;19;1498;-45
2023/06/03 09:51:49;;;;;;;;;;;;;;;22.22;66.97;100708.44;7395271;19;1448;-46
2023/06/03 09:54:18;;;;;;;;;;;;;;;22.34;66.27;100715.31;7391750;19;1868;-45
2023/06/03 09:56:47;;;;;;;;;;;;;;;22.14;66.95;100703.00;7392651;19;1962;-46
2023/06/03 09:59:16;;;;;;;;;;;;;;;22.32;66.26;100705.66;7392906;19;1655;-45
2023/06/03 10:01:48;;;;;;;;;;;;;;;22.25;66.19;100702.78;7395358;19;1564;-48
2023/06/03 10:04:20;;;;;;;;;;;;;;;22.50;65.64;100711.00;7400388;19;1828;-45
2023/06/03 10:06:48;;;;;;;;;;;;;;;22.44;65.78;100712.47;7400158;19;1244;-46
2023/06/03 10:09:21;;;;;;;;;;;;;;;22.40;66.18;100716.50;7402585;19;1490;-47
2023/06/03 10:11:50;;;;;;;;;;;;;;;22.46;65.89;100713.16;7401568;19;1318;-46
2023/06/03 10:14:21;;;;;;;;;;;;;;;22.47;66.12;100730.19;7399562;19;2288;-46
2023/06/03 10:17:05;;;;;;;;;;;;;;;22.23;66.95;100716.38;7399491;19;1655;-47
2023/06/03 10:19:37;;;;;;;;;;;;;;;22.42;65.90;100715.34;7400013;19;1581;-47
2023/06/03 10:22:06;;;;;;;;;;;;;;;22.27;66.14;100708.00;7396382;19;1860;-46
2023/06/03 10:24:36;;;;;;;;;;;;;;;22.04;66.62;100703.97;7396566;19;1633;-47
2023/06/03 10:27:04;;;;;;;;;;;;;;;22.24;65.92;100710.03;7400669;19;1723;-46
2023/06/03 10:29:34;;;;;;;;;;;;;;;22.39;65.68;100721.03;6886819;19;9999670;-46
2023/06/03 10:32:03;;;;;;;;;;;;;;;22.40;65.53;100717.38;7386322;19;1580;-46
2023/06/03 10:34:32;;;;;;;;;;;;;;;22.44;65.54;100715.16;7391347;19;1857;-46
2023/06/03 10:37:05;;;;;;;;;;;;;;;22.49;65.34;100712.84;7391608;19;1821;-47
2023/06/03 10:39:34;;;;;;;;;;;;;;;22.47;65.56;100714.88;7391118;19;1480;-47
2023/06/03 10:42:05;;;;;;;;;;;;;;;22.54;65.24;100710.53;7386932;19;1487;-46
2023/06/03 10:44:33;;;;;;;;;;;;;;;22.48;65.26;100719.22;7386324;19;1838;-47
2023/06/03 10:47:04;;;;;;;;;;;;;;;22.52;64.90;100711.69;7389366;19;1440;-47
2023/06/03 10:49:34;;;;;;;;;;;;;;;22.50;65.04;100717.25;7390041;19;1433;-46
2023/06/03 10:52:14;;;;;;;;;;;;;;;22.51;64.68;100710.84;7391353;19;1547;-46
2023/06/03 10:54:50;;;;;;;;;;;;;;;22.50;64.74;100716.38;7391048;19;1865;-46
2023/06/03 10:57:20;;;;;;;;;;;;;;;22.60;64.63;100709.91;7394034;19;1263;-47
2023/06/03 10:59:49;;;;;;;;;;;;;;;22.48;64.74;100708.44;7396221;19;1347;-47
2023/06/03 11:02:17;;;;;;;;;;;;;;;22.54;64.61;100718.63;7396931;19;1660;-47
2023/06/03 11:04:45;;;;;;;;;;;;;;;22.47;64.81;100712.16;7396871;19;1627;-46
2023/06/03 11:07:28;;;;;;;;;;;;;;;22.51;64.76;100716.22;7397965;19;1476;-47
2023/06/03 11:09:59;;;;;;;;;;;;;;;22.45;64.75;100706.09;7401206;19;1442;-47
2023/06/03 11:12:42;;;;;;;;;;;;;;;22.38;64.87;100691.56;7399400;19;1511;-47
2023/06/03 11:15:11;;;;;;;;;;;;;;;22.37;65.18;100711.44;7397596;19;1854;-47
2023/06/03 11:17:41;;;;;;;;;;;;;;;22.20;65.33;100700.53;7399943;19;1409;-47
2023/06/03 11:20:10;;;;;;;;;;;;;;;22.16;65.63;100715.31;7399176;19;1177;-47
2023/06/03 11:22:44;;;;;;;;;;;;;;;22.12;65.70;100700.47;7400854;19;1077;-47
2023/06/03 11:25:28;;;;;;;;;;;;;;;22.12;65.54;100703.16;7398798;19;1109;-47
2023/06/03 11:28:27;;;;;;;;;;;;;;;22.29;65.30;100703.31;7399438;19;1227;-47
2023/06/03 11:30:56;;;;;;;;;;;;;;;22.18;65.24;100710.63;7398914;19;1850;-47
2023/06/03 11:33:24;;;;;;;;;;;;;;;22.11;65.57;100709.56;7398095;19;1859;-47
2023/06/03 11:35:53;;;;;;;;;;;;;;;22.11;65.69;100714.94;7401168;19;1384;-47
2023/06/03 11:38:42;;;;;;;;;;;;;;;22.10;65.60;100698.94;7398719;19;1509;-47
2023/06/03 11:41:11;;;;;;;;;;;;;;;22.09;65.63;100708.03;7399000;19;1614;-47
2023/06/03 11:44:02;;;;;;;;;;;;;;;22.14;65.59;100711.91;7399895;19;1711;-48
2023/06/03 11:46:30;;;;;;;;;;;;;;;22.20;65.17;100711.31;7399193;19;1821;-47
2023/06/03 11:48:59;;;;;;;;;;;;;;;22.24;65.38;100711.84;7399044;19;1725;-46
2023/06/03 11:51:27;;;;;;;;;;;;;;;22.19;64.96;100709.59;7397914;19;1648;-46
2023/06/03 11:53:56;;;;;;;;;;;;;;;22.16;65.35;100706.38;7398509;19;1856;-48
2023/06/03 11:56:25;;;;;;;;;;;;;;;22.15;65.28;100708.22;7398816;19;1563;-47
2023/06/03 11:58:56;;;;;;;;;;;;;;;22.20;65.17;100689.75;7398967;19;1581;-47
2023/06/03 12:01:25;;;;;;;;;;;;;;;22.26;65.05;100711.69;7399634;19;1672;-47
2023/06/03 12:04:02;;;;;;;;;;;;;;;22.27;64.70;100690.00;7399474;19;1144;-47
2023/06/03 12:06:35;;;;;;;;;;;;;;;22.20;64.90;100697.84;7398547;19;1216;-47
2023/06/03 12:09:03;;;;;;;;;;;;;;;22.14;65.13;100700.31;7398511;19;1860;-47
2023/06/03 12:11:33;;;;;;;;;;;;;;;22.09;65.19;100705.34;7399300;19;1845;-47
2023/06/03 12:14:04;;;;;;;;;;;;;;;22.10;65.37;100705.16;7396317;19;1843;-47
2023/06/03 12:16:33;;;;;;;;;;;;;;;22.19;65.18;100696.13;7397904;19;1644;-47
2023/06/03 12:19:03;;;;;;;;;;;;;;;22.31;64.58;100695.91;7397766;19;1218;-47
2023/06/03 12:21:31;;;;;;;;;;;;;;;22.34;64.73;100706.34;7396383;19;1525;-48
2023/06/03 12:24:00;;;;;;;;;;;;;;;22.40;64.24;100700.31;7395759;19;1580;-47
2023/06/03 12:26:28;;;;;;;;;;;;;;;22.62;63.72;100704.31;7396916;19;1619;-47
2023/06/03 12:29:09;;;;;;;;;;;;;;;22.62;64.00;100704.31;7398407;19;1244;-47
2023/06/03 12:31:37;;;;;;;;;;;;;;;22.68;63.74;100702.84;7397524;19;1429;-47
2023/06/03 12:34:06;;;;;;;;;;;;;;;22.75;63.40;100701.19;7396904;19;1856;-47
2023/06/03 12:36:50;;;;;;;;;;;;;;;22.73;63.31;100704.03;7397521;19;1540;-47
2023/06/03 12:39:21;;;;;;;;;;;;;;;22.79;63.22;100695.31;7396848;19;1786;-47
2023/06/03 12:41:52;;;;;;;;;;;;;;;22.81;63.17;100693.28;7398418;19;1723;-47
2023/06/03 12:44:23;;;;;;;;;;;;;;;22.73;63.38;100692.44;7398793;19;1382;-47
2023/06/03 12:47:02;;;;;;;;;;;;;;;22.72;63.71;100690.72;7397141;19;1587;-47
2023/06/03 12:49:30;;;;;;;;;;;;;;;22.72;63.50;100698.81;7397149;19;1393;-48
2023/06/03 12:52:10;;;;;;;;;;;;;;;22.71;63.80;100697.13;7397522;19;1481;-47
2023/06/03 12:54:40;;;;;;;;;;;;;;;22.54;64.06;100691.69;7397431;19;1849;-47
2023/06/03 12:57:09;;;;;;;;;;;;;;;22.49;64.05;100688.59;7397334;19;1600;-47
2023/06/03 12:59:55;;;;;;;;;;;;;;;22.48;64.16;100692.28;7393336;19;1504;-50
2023/06/03 13:02:24;;;;;;;;;;;;;;;22.44;64.35;100699.00;7396386;19;1228;-51